createdAt,value
2023-04-23T00:02:26.864Z,42.60
2023-04-23T00:04:54.761Z,43.08
2023-04-23T00:07:22.223Z,40.72
2023-04-23T00:09:52.867Z,39.85
2023-04-23T00:12:20.767Z,38.80
2023-04-23T00:14:48.552Z,37.85
2023-04-23T00:17:15.689Z,38.97
2023-04-23T00:19:42.986Z,38.65
2023-04-23T00:22:10.480Z,35.80
2023-04-23T00:24:39.283Z,34.53
2023-04-23T00:27:06.556Z,35.60
2023-04-23T00:29:34.179Z,32.80
2023-04-23T00:32:03.136Z,34.42
2023-04-23T00:34:30.961Z,32.63
2023-04-23T00:36:57.922Z,30.27
2023-04-23T00:39:25.031Z,33.15
2023-04-23T00:41:52.173Z,31.08
2023-04-23T00:44:20.750Z,31.60
2023-04-23T00:46:48.175Z,29.20
2023-04-23T00:49:15.564Z,28.92
2023-04-23T00:51:42.903Z,27.98
2023-04-23T00:54:10.275Z,28.98
2023-04-23T00:56:37.446Z,28.50
2023-04-23T00:59:04.754Z,27.83
2023-04-23T01:01:33.086Z,28.77
2023-04-23T01:04:00.852Z,29.80
2023-04-23T01:06:28.617Z,29.40
2023-04-23T01:08:56.035Z,27.65
2023-04-23T01:11:23.610Z,27.63
2023-04-23T01:13:50.654Z,29.08
2023-04-23T01:16:19.223Z,28.23
2023-04-23T01:18:46.744Z,28.13
2023-04-23T01:21:14.737Z,27.50
2023-04-23T01:23:41.900Z,24.48
2023-04-23T01:26:10.585Z,28.45
2023-04-23T01:28:37.587Z,23.63
2023-04-23T01:31:05.237Z,24.30
2023-04-23T01:33:32.556Z,25.63
2023-04-23T01:35:59.691Z,24.80
2023-04-23T01:38:27.216Z,23.13
2023-04-23T01:40:54.419Z,23.10
2023-04-23T01:43:22.697Z,22.65
2023-04-23T01:45:50.064Z,21.45
2023-04-23T01:48:17.751Z,21.42
2023-04-23T01:50:45.108Z,22.77
2023-04-23T01:53:12.655Z,22.42
2023-04-23T01:55:40.115Z,23.20
2023-04-23T01:58:07.804Z,22.70
2023-04-23T02:00:34.968Z,21.75
2023-04-23T02:03:02.816Z,22.25
2023-04-23T02:05:30.221Z,20.27
2023-04-23T02:07:57.946Z,20.67
2023-04-23T02:10:25.746Z,21.92
2023-04-23T02:12:53.185Z,21.25
2023-04-23T02:15:21.525Z,20.73
2023-04-23T02:17:51.800Z,20.35
2023-04-23T02:20:19.258Z,20.10
2023-04-23T02:22:46.891Z,20.90
2023-04-23T02:25:18.001Z,21.13
2023-04-23T02:27:45.565Z,20.35
2023-04-23T02:30:13.361Z,20.45
2023-04-23T02:32:41.470Z,19.38
2023-04-23T02:35:10.419Z,18.48
2023-04-23T02:37:37.544Z,20.50
2023-04-23T02:40:06.290Z,18.75
2023-04-23T02:42:33.898Z,17.80
2023-04-23T02:45:01.092Z,18.45
2023-04-23T02:47:31.272Z,19.00
2023-04-23T02:49:58.917Z,18.25
2023-04-23T02:52:26.606Z,16.90
2023-04-23T02:54:54.146Z,15.82
2023-04-23T02:57:21.943Z,16.42
2023-04-23T02:59:50.023Z,15.93
2023-04-23T03:02:20.720Z,14.25
2023-04-23T03:04:48.319Z,14.23
2023-04-23T03:07:17.296Z,14.25
2023-04-23T03:09:44.447Z,14.10
2023-04-23T03:12:11.943Z,13.65
2023-04-23T03:14:39.717Z,12.73
2023-04-23T03:17:07.180Z,12.18
2023-04-23T03:19:35.337Z,11.75
2023-04-23T03:22:05.667Z,11.40
2023-04-23T03:24:33.606Z,10.38
2023-04-23T03:27:00.969Z,9.85
2023-04-23T03:29:28.428Z,10.90
2023-04-23T03:31:56.656Z,10.57
2023-04-23T03:34:23.859Z,9.93
2023-04-23T03:36:51.280Z,10.35
2023-04-23T03:39:19.076Z,9.90
2023-04-23T03:41:52.620Z,10.00
2023-04-23T03:44:25.135Z,9.80
2023-04-23T03:46:52.665Z,9.38
2023-04-23T03:49:21.052Z,7.88
2023-04-23T03:51:48.208Z,7.90
2023-04-23T03:54:16.128Z,8.30
2023-04-23T03:57:03.395Z,7.90
2023-04-23T03:59:35.731Z,7.63
2023-04-23T04:02:06.074Z,7.47
2023-04-23T04:04:33.969Z,8.20
2023-04-23T04:07:01.151Z,7.45
2023-04-23T04:09:28.913Z,7.95
2023-04-23T04:12:01.355Z,7.78
2023-04-23T04:14:29.038Z,8.50
2023-04-23T04:16:56.695Z,8.60
2023-04-23T04:19:23.840Z,8.45
2023-04-23T04:21:53.531Z,8.07
2023-04-23T04:24:22.533Z,8.40
2023-04-23T04:26:52.387Z,8.38
2023-04-23T04:29:21.431Z,8.55
2023-04-23T04:31:48.558Z,7.43
2023-04-23T04:34:18.008Z,8.23
2023-04-23T04:36:45.746Z,9.57
2023-04-23T04:39:14.585Z,8.80
2023-04-23T04:41:42.900Z,19.60
2023-04-23T04:44:10.338Z,9.55
2023-04-23T04:46:40.265Z,7.47
2023-04-23T04:49:08.856Z,10.13
2023-04-23T04:51:36.999Z,9.55
2023-04-23T04:54:04.582Z,6.00
2023-04-23T04:56:32.042Z,5.45
2023-04-23T04:58:59.644Z,4.97
2023-04-23T05:01:28.490Z,5.30
2023-04-23T05:03:56.162Z,5.63
2023-04-23T05:06:23.516Z,5.30
2023-04-23T05:08:51.491Z,7.25
2023-04-23T05:11:19.619Z,6.53
2023-04-23T05:13:47.523Z,6.00
2023-04-23T05:16:14.633Z,6.32
2023-04-23T05:18:42.374Z,6.63
2023-04-23T05:21:09.516Z,7.13
2023-04-23T05:23:37.258Z,6.28
2023-04-23T05:26:04.630Z,6.32
2023-04-23T05:28:31.989Z,6.57
2023-04-23T05:30:59.174Z,6.65
2023-04-23T05:33:30.646Z,6.60
2023-04-23T05:36:00.651Z,6.90
2023-04-23T05:38:27.998Z,5.72
2023-04-23T05:40:55.011Z,5.90
2023-04-23T05:43:22.100Z,5.50
2023-04-23T05:45:49.452Z,5.70
2023-04-23T05:48:16.800Z,5.47
2023-04-23T05:50:44.240Z,5.93
2023-04-23T05:53:11.320Z,5.43
2023-04-23T05:55:38.468Z,5.93
2023-04-23T05:58:06.015Z,6.47
2023-04-23T06:00:35.193Z,5.82
2023-04-23T06:03:02.234Z,5.85
2023-04-23T06:05:29.986Z,5.57
2023-04-23T06:07:57.514Z,6.13
2023-04-23T06:10:24.775Z,5.47
2023-04-23T06:12:53.769Z,5.50
2023-04-23T06:15:21.226Z,5.70
2023-04-23T06:17:48.272Z,5.43
2023-04-23T06:20:15.544Z,5.10
2023-04-23T06:22:42.580Z,5.63
2023-04-23T06:25:10.158Z,6.50
2023-04-23T06:27:37.023Z,6.20
2023-04-23T06:30:11.732Z,6.00
2023-04-23T06:32:39.260Z,5.95
2023-04-23T06:35:07.307Z,5.53
2023-04-23T06:37:35.609Z,5.80
2023-04-23T06:40:03.081Z,5.80
2023-04-23T06:42:30.752Z,6.35
2023-04-23T06:45:18.238Z,5.68
2023-04-23T06:47:45.799Z,7.80
2023-04-23T06:50:13.477Z,5.80
2023-04-23T06:52:40.940Z,6.88
2023-04-23T06:55:08.747Z,5.40
2023-04-23T06:57:36.423Z,5.85
2023-04-23T07:00:06.852Z,4.78
2023-04-23T07:02:38.347Z,5.45
2023-04-23T07:05:05.696Z,4.78
2023-04-23T07:07:33.891Z,5.57
2023-04-23T07:10:00.988Z,6.65
2023-04-23T07:12:28.215Z,5.18
2023-04-23T07:14:56.029Z,4.97
2023-04-23T07:17:23.103Z,5.70
2023-04-23T07:19:50.348Z,5.13
2023-04-23T07:22:17.813Z,5.65
2023-04-23T07:24:45.231Z,6.00
2023-04-23T07:27:12.897Z,5.85
2023-04-23T07:29:40.314Z,4.60
2023-04-23T07:32:07.761Z,5.28
2023-04-23T07:34:38.102Z,5.68
2023-04-23T07:37:06.257Z,5.63
2023-04-23T07:39:33.469Z,5.30
2023-04-23T07:42:02.298Z,4.80
2023-04-23T07:44:29.814Z,5.40
2023-04-23T07:46:56.980Z,5.28
2023-04-23T07:49:24.689Z,5.20
2023-04-23T07:51:52.274Z,5.50
2023-04-23T07:54:19.924Z,5.35
2023-04-23T07:56:47.078Z,5.32
2023-04-23T07:59:14.399Z,5.25
2023-04-23T08:01:42.185Z,5.05
2023-04-23T08:04:09.887Z,5.15
2023-04-23T08:06:37.559Z,5.15
2023-04-23T08:09:06.609Z,5.82
2023-04-23T08:11:33.968Z,4.80
2023-04-23T08:14:03.827Z,5.35
2023-04-23T08:16:31.474Z,5.57
2023-04-23T08:19:05.530Z,5.00
2023-04-23T08:21:35.268Z,5.82
2023-04-23T08:24:05.161Z,4.85
2023-04-23T08:26:32.510Z,5.50
2023-04-23T08:29:02.921Z,5.43
2023-04-23T08:31:30.466Z,4.55
2023-04-23T08:33:57.916Z,5.72
2023-04-23T08:36:26.447Z,5.72
2023-04-23T08:38:53.829Z,5.93
2023-04-23T08:41:22.691Z,5.88
2023-04-23T08:44:19.241Z,5.88
2023-04-23T08:46:46.329Z,5.43
2023-04-23T08:49:17.061Z,4.40
2023-04-23T08:51:52.704Z,4.30
2023-04-23T08:54:29.362Z,4.35
2023-04-23T08:56:57.910Z,4.57
2023-04-23T08:59:30.516Z,4.93
2023-04-23T09:01:59.500Z,5.03
2023-04-23T09:04:26.930Z,5.65
2023-04-23T09:06:55.585Z,4.47
2023-04-23T09:09:23.866Z,4.50
2023-04-23T09:11:52.278Z,4.20
2023-04-23T09:14:24.871Z,4.45
2023-04-23T09:16:52.523Z,4.20
2023-04-23T09:19:19.667Z,4.43
2023-04-23T09:21:46.966Z,3.95
2023-04-23T09:24:17.569Z,4.72
2023-04-23T09:26:46.472Z,3.88
2023-04-23T09:29:18.309Z,5.07
2023-04-23T09:31:50.167Z,4.63
2023-04-23T09:34:17.981Z,4.40
2023-04-23T09:36:45.608Z,4.60
2023-04-23T09:39:17.887Z,4.53
2023-04-23T09:41:48.227Z,4.07
2023-04-23T09:44:19.304Z,3.92
2023-04-23T09:46:46.702Z,4.80
2023-04-23T09:49:15.231Z,4.32
2023-04-23T09:51:45.222Z,4.00
2023-04-23T09:54:23.155Z,4.45
2023-04-23T09:56:53.908Z,4.65
2023-04-23T09:59:47.039Z,4.80
2023-04-23T10:02:12.998Z,4.55
2023-04-23T10:04:40.563Z,4.65
2023-04-23T10:07:19.837Z,5.00
2023-04-23T10:09:47.943Z,7.38
2023-04-23T10:14:46.866Z,7.82
2023-04-23T10:17:13.932Z,6.80
2023-04-23T10:19:43.193Z,4.63
2023-04-23T10:22:19.381Z,4.72
2023-04-23T10:24:49.934Z,4.82
2023-04-23T10:27:30.716Z,5.25
2023-04-23T10:30:01.103Z,4.50
2023-04-23T10:32:29.629Z,4.60
2023-04-23T10:34:57.339Z,4.55
2023-04-23T10:37:24.483Z,4.55
2023-04-23T10:39:54.966Z,4.90
2023-04-23T10:42:22.790Z,4.63
2023-04-23T10:44:59.564Z,9.10
2023-04-23T10:47:30.734Z,5.45
2023-04-23T10:49:57.978Z,5.10
2023-04-23T10:52:26.163Z,3.85
2023-04-23T10:54:57.876Z,4.50
2023-04-23T10:57:25.508Z,4.47
2023-04-23T10:59:54.145Z,4.55
2023-04-23T11:02:23.277Z,4.97
2023-04-23T11:05:03.434Z,4.25
2023-04-23T11:07:32.367Z,4.75
2023-04-23T11:10:00.467Z,5.28
2023-04-23T11:12:27.337Z,6.53
2023-04-23T11:14:54.998Z,6.97
2023-04-23T11:17:43.063Z,8.00
2023-04-23T11:20:20.411Z,5.20
2023-04-23T11:22:48.658Z,5.25
2023-04-23T11:25:23.637Z,13.30
2023-04-23T11:27:51.779Z,5.00
2023-04-23T11:30:20.537Z,5.68
2023-04-23T11:32:52.597Z,5.13
2023-04-23T11:35:37.603Z,4.65
2023-04-23T11:38:08.621Z,4.97
2023-04-23T11:40:35.772Z,5.25
2023-04-23T11:43:04.080Z,4.75
2023-04-23T11:45:31.489Z,4.63
2023-04-23T11:48:00.503Z,5.18
2023-04-23T11:50:33.208Z,5.78
2023-04-23T11:53:09.883Z,6.85
2023-04-23T11:55:38.187Z,6.40
2023-04-23T11:58:05.870Z,6.18
2023-04-23T12:00:32.996Z,8.15
2023-04-23T12:03:01.694Z,10.07
2023-04-23T12:05:35.100Z,7.88
2023-04-23T12:08:12.513Z,10.10
2023-04-23T12:10:52.967Z,8.05
2023-04-23T12:13:33.428Z,10.05
2023-04-23T12:16:04.588Z,10.30
2023-04-23T12:18:38.637Z,17.58
2023-04-23T12:21:07.247Z,14.32
2023-04-23T12:23:36.179Z,12.00
2023-04-23T12:26:04.154Z,24.35
2023-04-23T12:28:31.254Z,23.48
2023-04-23T12:31:02.371Z,21.25
2023-04-23T12:33:30.305Z,12.05
2023-04-23T12:35:57.522Z,10.02
2023-04-23T12:38:26.612Z,8.63
2023-04-23T12:40:54.996Z,8.68
2023-04-23T12:43:22.024Z,14.07
2023-04-23T12:45:49.561Z,16.25
2023-04-23T12:48:16.991Z,16.10
2023-04-23T12:50:47.574Z,17.27
2023-04-23T12:53:15.382Z,19.48
2023-04-23T12:55:44.083Z,21.75
2023-04-23T12:58:11.403Z,19.63
2023-04-23T13:00:39.205Z,17.42
2023-04-23T13:03:06.538Z,13.70
2023-04-23T13:05:33.988Z,14.95
2023-04-23T13:08:01.330Z,17.55
2023-04-23T13:10:30.571Z,13.93
2023-04-23T13:12:57.931Z,18.45
2023-04-23T13:15:26.947Z,33.28
2023-04-23T13:17:54.561Z,30.58
2023-04-23T13:20:21.757Z,34.38
2023-04-23T13:22:49.156Z,53.00
2023-04-23T13:25:16.846Z,54.95
2023-04-23T13:27:43.972Z,54.25
2023-04-23T13:30:11.582Z,67.93
2023-04-23T13:32:38.911Z,71.30
2023-04-23T13:35:06.712Z,67.03
2023-04-23T13:37:34.230Z,35.20
2023-04-23T13:40:01.460Z,43.17
2023-04-23T13:42:28.771Z,45.55
2023-04-23T13:44:56.598Z,35.75
2023-04-23T13:47:23.912Z,40.05
2023-04-23T13:49:51.399Z,44.97
2023-04-23T13:52:18.689Z,49.42
2023-04-23T13:54:47.815Z,44.33
2023-04-23T13:57:15.315Z,39.13
2023-04-23T13:59:42.510Z,33.70
2023-04-23T14:02:10.299Z,50.80
2023-04-23T14:04:39.411Z,50.10
2023-04-23T14:07:06.741Z,82.95
2023-04-23T14:09:34.192Z,75.60
2023-04-23T14:12:01.485Z,62.47
2023-04-23T14:14:28.891Z,44.45
2023-04-23T14:16:55.977Z,41.35
2023-04-23T14:19:25.938Z,41.40
2023-04-23T14:21:53.388Z,52.40
2023-04-23T14:24:27.403Z,46.67
2023-04-23T14:26:55.446Z,47.78
2023-04-23T14:29:53.296Z,73.77
2023-04-23T14:32:20.956Z,92.70
2023-04-23T14:34:47.998Z,91.38
2023-04-23T14:37:17.176Z,84.28
2023-04-23T14:39:44.795Z,53.40
2023-04-23T14:42:12.278Z,61.10
2023-04-23T14:44:39.250Z,53.50
2023-04-23T14:47:08.603Z,95.65
2023-04-23T14:49:36.058Z,70.53
2023-04-23T14:52:04.270Z,49.83
2023-04-23T14:54:31.326Z,72.82
2023-04-23T14:56:58.653Z,84.32
2023-04-23T14:59:26.017Z,79.20
2023-04-23T15:01:53.096Z,84.80
2023-04-23T15:04:20.769Z,95.05
2023-04-23T15:06:48.141Z,101.93
2023-04-23T15:09:15.647Z,87.22
2023-04-23T15:11:43.246Z,96.65
2023-04-23T15:14:27.088Z,110.70
2023-04-23T15:16:54.470Z,86.10
2023-04-23T15:19:21.430Z,82.18
2023-04-23T15:21:48.794Z,89.35
2023-04-23T15:24:16.581Z,94.65
2023-04-23T15:26:45.200Z,73.38
2023-04-23T15:29:13.144Z,66.15
2023-04-23T15:31:41.569Z,61.65
2023-04-23T15:34:09.756Z,60.13
2023-04-23T15:36:37.703Z,47.75
2023-04-23T15:39:06.801Z,50.28
2023-04-23T15:41:37.036Z,44.35
2023-04-23T15:44:06.136Z,46.13
2023-04-23T15:46:33.863Z,50.25
2023-04-23T15:49:00.922Z,43.95
2023-04-23T15:51:28.639Z,28.02
2023-04-23T15:53:56.009Z,32.55
2023-04-23T15:56:23.970Z,35.58
2023-04-23T15:58:51.123Z,32.60
2023-04-23T16:01:18.460Z,28.90
2023-04-23T16:03:53.766Z,22.67
2023-04-23T16:06:29.172Z,24.30
2023-04-23T16:08:56.425Z,26.73
2023-04-23T16:11:27.575Z,25.23
2023-04-23T16:13:56.668Z,27.77
2023-04-23T16:16:24.094Z,31.33
2023-04-23T16:18:51.487Z,25.65
2023-04-23T16:21:18.564Z,41.67
2023-04-23T16:23:45.870Z,37.50
2023-04-23T16:26:13.221Z,38.33
2023-04-23T16:28:41.142Z,39.20
2023-04-23T16:31:08.763Z,42.75
2023-04-23T16:33:36.244Z,41.30
2023-04-23T16:36:03.857Z,43.63
2023-04-23T16:38:31.439Z,41.35
2023-04-23T16:40:58.492Z,41.40
2023-04-23T16:43:27.236Z,41.03
2023-04-23T16:45:54.379Z,39.38
2023-04-23T16:48:21.809Z,42.55
2023-04-23T16:50:49.100Z,39.75
2023-04-23T16:53:17.248Z,39.03
2023-04-23T16:55:44.658Z,41.08
2023-04-23T16:58:11.868Z,39.88
2023-04-23T17:00:38.921Z,41.63
2023-04-23T17:03:06.198Z,45.65
2023-04-23T17:05:34.028Z,47.58
2023-04-23T17:08:01.102Z,48.25
2023-04-23T17:10:28.221Z,75.13
2023-04-23T17:12:55.641Z,74.70
2023-04-23T17:15:22.787Z,79.07
2023-04-23T17:17:50.084Z,81.05
2023-04-23T17:20:17.427Z,81.72
2023-04-23T17:22:44.687Z,82.30
2023-04-23T17:25:11.906Z,82.32
2023-04-23T17:27:39.292Z,82.05
2023-04-23T17:30:07.404Z,81.25
2023-04-23T17:32:34.708Z,84.00
2023-04-23T17:35:10.332Z,79.20
2023-04-23T17:37:39.138Z,76.57
2023-04-23T17:40:06.981Z,79.85
2023-04-23T17:42:34.467Z,72.10
2023-04-23T17:45:01.456Z,70.07
2023-04-23T17:47:29.112Z,71.30
2023-04-23T17:49:56.827Z,65.15
2023-04-23T17:52:23.984Z,60.42
2023-04-23T17:54:51.011Z,59.80
2023-04-23T17:57:18.626Z,57.95
2023-04-23T17:59:46.029Z,59.45
2023-04-23T18:02:13.399Z,51.97
2023-04-23T18:04:42.456Z,53.45
2023-04-23T18:07:10.687Z,53.47
2023-04-23T18:09:37.940Z,52.83
2023-04-23T18:12:06.036Z,58.80
2023-04-23T18:14:33.246Z,59.42
2023-04-23T18:17:00.968Z,56.10
2023-04-23T18:19:29.711Z,54.95
2023-04-23T18:22:01.484Z,57.22
2023-04-23T18:24:28.596Z,54.42
2023-04-23T18:26:58.144Z,53.28
2023-04-23T18:29:26.230Z,53.95
2023-04-23T18:31:53.491Z,54.70
2023-04-23T18:34:20.897Z,53.15
2023-04-23T18:36:48.914Z,54.13
2023-04-23T18:39:16.527Z,53.63
2023-04-23T18:41:44.534Z,53.60
2023-04-23T18:44:13.901Z,54.67
2023-04-23T18:46:41.605Z,50.47
2023-04-23T18:49:23.912Z,49.65
2023-04-23T18:51:51.136Z,52.70
2023-04-23T18:54:18.122Z,55.28
2023-04-23T18:56:45.405Z,52.45
2023-04-23T18:59:13.128Z,54.10
2023-04-23T19:01:40.457Z,54.47
2023-04-23T19:04:07.745Z,56.78
2023-04-23T19:06:35.056Z,56.08
2023-04-23T19:09:02.262Z,53.38
2023-04-23T19:11:34.168Z,53.50
2023-04-23T19:14:01.675Z,53.88
2023-04-23T19:16:29.364Z,52.63
2023-04-23T19:18:56.832Z,50.72
2023-04-23T19:21:24.142Z,50.92
2023-04-23T19:23:53.562Z,53.40
2023-04-23T19:26:20.589Z,52.60
2023-04-23T19:28:48.251Z,53.15
2023-04-23T19:31:15.569Z,53.40
2023-04-23T19:33:45.213Z,52.50
2023-04-23T19:36:12.590Z,53.60
2023-04-23T19:38:39.971Z,56.53
2023-04-23T19:41:07.561Z,54.05
2023-04-23T19:43:34.752Z,55.58
2023-04-23T19:46:01.999Z,54.60
2023-04-23T19:48:29.396Z,57.30
2023-04-23T19:50:57.065Z,59.78
2023-04-23T19:53:24.227Z,59.80
2023-04-23T19:55:51.403Z,62.38
2023-04-23T19:58:19.077Z,63.17
2023-04-23T20:00:46.422Z,64.15
2023-04-23T20:03:13.773Z,69.70
2023-04-23T20:05:43.317Z,69.70
2023-04-23T20:08:25.915Z,65.10
2023-04-23T20:10:53.984Z,70.65
2023-04-23T20:13:21.227Z,65.65
2023-04-23T20:15:49.983Z,67.97
2023-04-23T20:18:18.145Z,65.32
2023-04-23T20:20:45.888Z,65.65
2023-04-23T20:23:12.998Z,68.45
2023-04-23T20:25:40.192Z,71.85
2023-04-23T20:28:07.588Z,72.97
2023-04-23T20:30:36.025Z,73.75
2023-04-23T20:33:03.559Z,76.53
2023-04-23T20:35:31.286Z,74.63
2023-04-23T20:37:58.327Z,63.00
2023-04-23T20:40:26.684Z,52.53
2023-04-23T20:42:54.184Z,55.72
2023-04-23T20:45:22.406Z,55.35
2023-04-23T20:47:50.952Z,51.15
2023-04-23T20:50:18.411Z,45.97
2023-04-23T20:52:45.622Z,47.67
2023-04-23T20:55:12.603Z,48.80
2023-04-23T20:57:39.734Z,49.60
2023-04-23T21:00:11.288Z,48.17
2023-04-23T21:02:39.176Z,50.30
2023-04-23T21:05:07.757Z,47.65
2023-04-23T21:07:36.819Z,45.88
2023-04-23T21:10:04.674Z,46.90
2023-04-23T21:12:31.812Z,43.95
2023-04-23T21:14:59.217Z,43.53
2023-04-23T21:17:26.606Z,42.30
2023-04-23T21:19:54.148Z,43.30
2023-04-23T21:22:21.772Z,46.03
2023-04-23T21:24:48.875Z,46.33
2023-04-23T21:27:20.984Z,45.05
2023-04-23T21:29:48.811Z,44.72
2023-04-23T21:32:16.129Z,43.08
2023-04-23T21:34:43.248Z,46.58
2023-04-23T21:37:10.826Z,46.70
2023-04-23T21:39:37.930Z,39.22
2023-04-23T21:42:05.342Z,43.58
2023-04-23T21:44:35.559Z,43.80
2023-04-23T21:47:03.581Z,45.25
2023-04-23T21:49:31.278Z,55.85
2023-04-23T21:52:00.165Z,70.97
2023-04-23T21:54:27.207Z,74.72
2023-04-23T21:56:54.473Z,77.95
2023-04-23T21:59:23.607Z,75.60
2023-04-23T22:01:51.230Z,74.68
2023-04-23T22:04:18.919Z,79.05
2023-04-23T22:06:46.270Z,79.25
2023-04-23T22:09:14.123Z,75.22
2023-04-23T22:11:46.271Z,74.72
2023-04-23T22:14:19.375Z,76.30
2023-04-23T22:16:47.108Z,78.78
2023-04-23T22:19:15.983Z,78.40
2023-04-23T22:21:43.420Z,77.28
2023-04-23T22:24:10.912Z,79.95
2023-04-23T22:26:37.795Z,84.68
2023-04-23T22:29:05.181Z,93.97
2023-04-23T22:31:32.438Z,100.50
2023-04-23T22:33:59.978Z,107.22
2023-04-23T22:36:28.390Z,108.07
2023-04-23T22:38:56.214Z,106.55
2023-04-23T22:41:23.360Z,111.00
2023-04-23T22:43:52.158Z,110.53
2023-04-23T22:46:19.174Z,106.75
2023-04-23T22:48:47.294Z,108.05
2023-04-23T22:51:14.443Z,109.65
2023-04-23T22:53:42.117Z,99.03
2023-04-23T22:56:09.466Z,96.45
2023-04-23T22:58:37.365Z,94.22
2023-04-23T23:01:04.649Z,90.80
2023-04-23T23:03:32.556Z,85.53
2023-04-23T23:06:00.245Z,88.00
2023-04-23T23:08:27.601Z,86.72
2023-04-23T23:10:55.395Z,85.07
2023-04-23T23:13:23.221Z,73.10
2023-04-23T23:15:50.613Z,68.10
2023-04-23T23:18:20.812Z,57.72
2023-04-23T23:20:48.173Z,58.95
2023-04-23T23:23:15.242Z,57.80
2023-04-23T23:25:42.456Z,55.03
2023-04-23T23:28:10.137Z,58.85
2023-04-23T23:30:37.286Z,47.53
2023-04-23T23:33:05.130Z,49.45
2023-04-23T23:35:32.120Z,51.28
2023-04-23T23:37:59.702Z,54.63
2023-04-23T23:40:27.479Z,55.78
2023-04-23T23:42:54.922Z,55.17
2023-04-23T23:45:21.899Z,57.05
2023-04-23T23:47:48.987Z,56.38
2023-04-23T23:50:16.238Z,55.85
2023-04-23T23:52:43.433Z,58.75
2023-04-23T23:55:11.709Z,58.90
2023-04-23T23:57:38.746Z,58.33
